x

New Dungeness - 17 Nm Ne Of Port Angeles, Wa (46088) Wave Buoy

6:50 - Thu 19th Jan 2017 All times are PST. -8 hours from GMT.

  • Sig Wave height 1.0ft
  • Swell Direction
  • Peak Period 11s
  • Average Period 4s
  • Wind
    4mph, 7mph gusts
  • Sea Temp 46°f
  • Air Temp 46°f
  • Sea Pressure 996.2mb
  • New Dungeness - 17 Nm Ne Of Port Angeles, Wa
  • New Dungeness - 17 Nm Ne Of Port Angeles, Wa

More Historic Weather Station data

Upgrade to MSW Pro to gain access to the past 30 days of data for over 8000 Wavebouys and Weather Stations around the globe.

Join Pro

Comparision Forecast

View Surf forecast
   
jeu. 01/19 6:50 1ft 11s 4s 4 7 mph 996.2mb 46f 46f
6:20 1ft 11s 4s 4
mph
996.1mb 46f 46f
5:50 1ft 3s 3s 4 7 mph 996.2mb 46f 46f
5:20 1ft 3s 3s 9
mph
996.2mb 46f 46f
4:20 1.3ft 3s 3s 4
mph
995.6mb 46f 46f
3:50 1ft 3s 3s 4
mph
995.5mb 46f 46f
3:20 1ft 3s 3s 4
mph
995.6mb 46f 46f
2:50 1ft 3s 3s 4
mph
995.8mb 46f 46f
2:20 1.3ft 4s 3s 7
mph
996mb 46f 46f
1:50 1.3ft 11s 4s 7 9 mph 996.2mb 46f 46f
1:20 1ft 13s 4s 4
mph
996.4mb 46f 47f
12:50 1.3ft 4s 4s  -  2 mph 996.8mb 46f 48f
12:20 1.6ft 4s 4s  -  2 mph 996.9mb 46f 46f
11:50 1.6ft 5s 4s 2
mph
997.1mb 46f 46f
11:20 1.6ft 5s 4s 2 4 mph 996.9mb 46f 46f
10:50 1.6ft 4s 4s 2 4 mph 996.9mb 46f 46f
10:20 1.6ft 4s 4s 2 4 mph 996.7mb 46f 46f
9:50 1.6ft 4s 4s  -  2 mph 996.7mb 46f 46f
9:20 1.6ft 4s 4s  -  mph 996.6mb 46f 45f
8:50 1.3ft 4s 4s 2 4 mph 996.5mb 46f 45f
8:20 1.3ft 4s 4s 2
mph
996mb 46f 45f
7:50 1.3ft 4s 4s 2
mph
995.8mb 46f 45f
7:20 1ft 4s 4s 2 4 mph 995.8mb 46f 45f
6:50 1ft 11s 4s 4
mph
995.5mb 46f 45f
6:20 1ft 4s 4s 4 7 mph 995.4mb 46f 46f
5:50 1ft 3s 4s 9 11 mph 995mb 46f 46f
5:20 1.3ft 4s 4s 7
mph
995mb 46f 46f
4:50 1.3ft 3s 3s 7
mph
994.4mb 46f 46f
4:20 1ft 3s 3s 7 9 mph 994.2mb 46f 46f
3:50 1ft 3s 3s 2
mph
994.2mb 46f 46f
3:20 0.7ft  -  3s 4
mph
994mb 46f 46f
2:50 1ft 3s 3s 9 11 mph 993.9mb 46f 47f
2:20 1ft 3s 3s 4 7 mph 993.6mb 46f 46f
1:50 1.3ft 4s 3s 7 9 mph 993.4mb 46f 46f
1:20 1.3ft 4s 3s 9
mph
993.3mb 46f 46f
12:50 1.6ft 4s 4s 11 13 mph 992.9mb 46f 46f
12:20 1.6ft 4s 3s 9 11 mph 991.7mb 46f 46f
mer. 01/18 11:50 1.6ft 3s 3s 7 9 mph 990.9mb 46f 46f
11:20 1.3ft 3s 3s 16 20 mph 990.5mb 46f 46f
10:50 1.3ft 4s 3s 16 18 mph 990.1mb 46f 46f
10:20 1.6ft 4s 4s 13 18 mph 989.5mb 46f 47f
9:50 1.3ft 4s 3s 9 11 mph 989.1mb 46f 47f
9:20 1.3ft 4s 3s 7 9 mph 988.6mb 46f 47f
8:50 1.3ft 4s 3s 7
mph
988.5mb 46f 47f
8:20 1.3ft 3s 3s 4 7 mph 988.5mb 46f 47f
7:50 1.3ft 3s 3s 9 11 mph 988.4mb 46f 47f
7:20 1.3ft 3s 3s 11 13 mph 988.3mb 46f 48f
6:50 1ft 3s 3s 11 13 mph 988.2mb 46f 48f
6:20 1ft 3s 3s 9 11 mph 988.5mb 46f 48f
5:50 1.3ft 3s 3s 11 13 mph 988.7mb 46f 49f
5:20 1.6ft 3s 3s 7 9 mph 988.9mb 46f 48f
4:50 1.6ft 3s 3s  -  2 mph 989.2mb 46f 50f
4:20 2ft 4s 4s 2 4 mph 989.6mb 46f 49f
3:50 2.5ft 4s 4s 4 7 mph 989.4mb 46f 49f
3:20 2.5ft 4s 4s 11
mph
989.9mb 46f 49f
2:50 2.5ft 4s 4s 13 16 mph 989.9mb 46f 49f
2:20 2.5ft 4s 3s 16 22 mph 989.9mb 46f 50f
1:50 2.5ft 4s 3s 18 20 mph 990.2mb 46f 50f
1:20 2ft 4s 4s 16 20 mph 989.7mb 46f 50f
12:50 2.5ft 4s 4s 11 16 mph 989.7mb 46f 50f
12:20 3.5ft 4s 4s 18 22 mph 989.7mb 46f 50f
11:50 4ft 5s 4s 20 22 mph 989.3mb 46f 50f
11:20 4.5ft 5s 4s 20 27 mph 989.4mb 46f 50f
10:50 4.5ft 5s 4s 20 27 mph 989mb 46f 50f
10:20 4.5ft 5s 4s 22 29 mph 989.1mb 46f 50f
9:50 4.5ft 5s 4s 29 36 mph 987.8mb 46f 49f
9:20 4.5ft 5s 5s 31 38 mph 987.4mb 46f 48f
8:50 5ft 5s 5s 22 31 mph 987.7mb 46f 48f
8:20 4.5ft 5s 5s 27 34 mph 988.2mb 46f 48f
7:50 4.5ft 5s 5s 27 34 mph 988.5mb 46f 48f
7:20 3.5ft 5s 4s 29 36 mph 987.6mb 46f 47f
6:50 2.5ft 5s 4s 25 31 mph 988.7mb 46f 49f
6:20 2.5ft 5s 4s 25 27 mph 990mb 46f 49f
5:50 2.5ft 5s 4s 20 22 mph 990.7mb 46f 49f
5:20 2.5ft 5s 4s 11 16 mph 991.3mb 46f 49f
4:50 3ft 5s 4s 16 18 mph 991.4mb 46f 49f
4:20 3ft 5s 4s 20 25 mph 991.4mb 46f 49f
3:50 3ft 5s 4s 20 25 mph 991.6mb 46f 49f
3:20 3ft 4s 4s 18 22 mph 992.5mb 46f 49f
2:50 3.5ft 5s 4s 18 22 mph 992.3mb 46f 49f
2:20 3.5ft 5s 4s 20 22 mph 993mb 46f 49f
1:50 3.5ft 5s 4s 20 25 mph 992.6mb 46f 49f
1:20 3.5ft 5s 4s 18 25 mph 993mb 46f 49f
12:50 4ft 5s 4s 20 27 mph 992.9mb 46f 49f
12:20 3.5ft 4s 4s 18 22 mph 993.1mb 46f 49f
mar. 01/17 11:50 4ft 5s 4s 20 25 mph 993.5mb 46f 49f
11:20 4ft 5s 4s 27 31 mph 993.5mb 46f 49f
10:50 4.5ft 5s 4s 25 29 mph 993.2mb 46f 49f
10:20 4.5ft 5s 4s 27 31 mph 993.1mb 46f 49f
9:50 4.5ft 5s 4s 22 29 mph 993.8mb 46f 49f
9:20 5ft 6s 5s 25 29 mph 993.6mb 46f 49f
8:50 5ft 6s 5s 25 31 mph 993.2mb 46f 49f
8:20 5ft 6s 5s 25 31 mph 993mb 46f 49f
7:50 4.5ft 6s 5s 25 29 mph 992.9mb 46f 49f
7:20 5.5ft 6s 5s 27 36 mph 993.1mb 46f 49f
6:50 5ft 6s 5s 25 34 mph 993.3mb 46f 49f
6:20 5.5ft 6s 5s 25 34 mph 993mb 46f 49f
5:50 6ft 5s 5s 27 34 mph 993.1mb 46f 50f
4:50 6ft 6s 5s 31 40 mph 993.7mb 46f 49f
4:20 6.5ft 6s 5s 34 40 mph 994.7mb 46f 49f
3:50 5.5ft 6s 5s 29 36 mph 995.4mb 46f 48f
3:20 5ft 6s 5s 34 40 mph 995.3mb 46f 47f
2:50 4.5ft 5s 4s 34 40 mph 996.8mb 46f 48f
2:20 2.5ft 5s 4s 25 34 mph 997.2mb 46f 49f
1:50 2.5ft 4s 4s 13 18 mph 998.7mb 46f 49f
1:20 2ft 4s 4s 9 13 mph 999.5mb 46f 50f
12:50 2.5ft 5s 4s 2
mph
1000.9mb 46f 46f
12:20 3.5ft 5s 4s 7
mph
1001.6mb 46f 46f
11:50 3.5ft 5s 4s 4
mph
1001.8mb 46f 47f
11:20 4ft 6s 5s 2 4 mph 1002.4mb 46f 46f
10:50 4.5ft 6s 5s 9 11 mph 1002.2mb 46f 49f
10:20 4.5ft 6s 5s 11 16 mph 1001.8mb 46f 48f
9:50 5ft 6s 5s 7
mph
1002mb 46f 47f
9:20 5ft 6s 5s 18 22 mph 1001.1mb 46f 49f
8:50 5ft 6s 5s 22 27 mph 1000.9mb 46f 49f
8:20 4ft 5s 5s 20 25 mph 1001.5mb 46f 49f
7:50 3.5ft 5s 4s 29 36 mph 1000.9mb 46f 49f
7:20 2.5ft 4s 4s 27 34 mph 1001.7mb 46f 48f
6:50 1.3ft 4s 3s 27 34 mph 1002.3mb 46f 48f
6:20 0.7ft  -  3s 18 25 mph 1003.2mb 46f 47f
5:50 0.7ft  -  3s 13 16 mph 1004.1mb 46f 48f
5:20 0.7ft  -  3s 9 11 mph 1005.1mb 46f 46f
4:50 0.7ft  -  3s 4 9 mph 1006.3mb 46f 45f
4:20 0.7ft  -  3s 11 13 mph 1006.1mb 46f 45f
3:50 0.7ft  -  3s 7 11 mph 1007.5mb 46f 46f
3:20 0.7ft  -  3s 7
mph
1008.6mb 46f 46f
2:50 1ft 3s 3s 2 4 mph 1009mb 46f 46f
2:20 1ft 3s 3s  -  4 mph 1009.2mb 46f 46f
1:50 1.3ft 3s 3s 2 4 mph 1009.1mb 46f 46f
1:20 1.3ft 3s 3s 7 9 mph 1009.2mb 46f 46f
12:50 1.3ft 3s 3s 4
mph
1009.3mb 46f 47f
12:20 1ft 3s 3s 2 4 mph 1009.5mb 46f 47f
lun. 01/16 11:50 0.3ft  -  3s 2 4 mph 1009.9mb 46f 47f
11:20 0.7ft  -  3s 7
mph
1010.3mb 46f 46f
10:50 0.7ft  -  3s 4 7 mph 1010.8mb 46f 45f
10:20 0.7ft  -  3s 4 7 mph 1011.3mb 46f 45f
9:50 0.7ft  -  3s 9 11 mph 1011.8mb 46f 44f
9:20 0.7ft  -  3s 9
mph
1012.3mb 46f 45f
8:50 0.7ft  -  3s 9 11 mph 1012.7mb 46f 46f
8:20 0.7ft  -  3s 13
mph
1012.8mb 46f 45f
7:50 1ft 3s 3s 11 13 mph 1013mb 46f 45f
7:20 1ft 3s 3s 13
mph
1013.3mb 46f 44f
6:50 0.7ft  -  3s 18 20 mph 1013.8mb 46f 44f
6:20 0.3ft  -  3s 18 20 mph 1013.8mb 46f 44f
5:50 0.7ft  -  4s 4
mph
1014.2mb 46f 44f
5:20 0.7ft  -  3s 2
mph
1013.8mb 46f 44f
4:50 0.7ft  -  3s 11
mph
1013.1mb 46f 45f
4:20 0.7ft  -  3s 7 9 mph 1013.6mb 46f 45f
3:50 1ft 3s 3s 2
mph
1014.8mb 46f 44f
3:20 1ft 3s 3s 2
mph
1014.7mb 46f 44f
2:50 1.3ft 3s 3s 2
mph
1015mb 46f 44f
2:20 1.3ft 3s 3s 4 7 mph 1015.5mb 46f 44f
1:50 1.3ft 3s 3s 11 13 mph 1015.9mb 46f 44f
1:20 1.6ft 3s 3s 16 18 mph 1016.8mb 46f 44f
12:50 1.6ft 3s 3s 16 20 mph 1017.5mb 46f 44f
12:20 1.6ft 4s 3s 18 20 mph 1018.1mb 46f 43f
11:50 2ft 4s 3s 16 18 mph 1018.8mb 46f 42f
11:20 2ft 3s 3s 16 18 mph 1019.5mb 46f 41f
10:50 2ft 3s 3s 16 22 mph 1019.9mb 46f 42f
10:20 1.3ft 3s 3s 18 22 mph 1019.7mb 46f 42f
9:50 1.3ft 3s 3s 16 20 mph 1020.2mb 46f 41f
9:20 1.3ft 3s 3s 13 16 mph 1020.7mb 46f 41f
8:50 1.3ft 3s 3s 16 18 mph 1020.5mb 46f 41f
8:20 1ft 3s 3s 13 16 mph 1020.8mb 46f 42f
7:50 1ft 3s 3s 11 16 mph 1021.3mb 46f 41f
7:20 0.7ft  -  3s 11 13 mph 1021.4mb 46f 42f
6:50 0.7ft  -  3s 9 11 mph 1021.6mb 46f 42f
6:20 0.7ft  -  3s 9 11 mph 1022.2mb 46f 42f
5:50 0.7ft  -  3s 9 11 mph 1022.4mb 46f 42f
5:20 0.7ft  -  3s 7 9 mph 1022.6mb 46f 42f
4:50 0.7ft  -  3s 9
mph
1022.7mb 46f 42f
4:20 0.7ft  -  3s 9 11 mph 1023mb 46f 42f